createdAt,value
2018-01-30T00:01:07.276Z,5.40
2018-01-30T00:03:35.519Z,5.40
2018-01-30T00:06:03.030Z,5.30
2018-01-30T00:08:30.504Z,5.30
2018-01-30T00:10:58.021Z,5.30
2018-01-30T00:13:25.497Z,5.30
2018-01-30T00:15:52.984Z,5.20
2018-01-30T00:18:20.457Z,5.20
2018-01-30T00:20:47.954Z,5.20
2018-01-30T00:23:16.187Z,5.20
2018-01-30T00:25:43.667Z,5.20
2018-01-30T00:28:11.226Z,5.20
2018-01-30T00:30:39.480Z,5.10
2018-01-30T00:33:06.998Z,5.10
2018-01-30T00:35:34.455Z,5.00
2018-01-30T00:38:01.935Z,5.00
2018-01-30T00:40:29.417Z,5.00
2018-01-30T00:42:56.898Z,5.00
2018-01-30T00:45:25.126Z,4.90
2018-01-30T00:47:52.603Z,5.00
2018-01-30T00:50:21.927Z,5.00
2018-01-30T00:52:50.150Z,4.90
2018-01-30T00:55:17.626Z,4.90
2018-01-30T00:57:45.134Z,4.90
2018-01-30T01:00:12.600Z,4.90
2018-01-30T01:02:40.063Z,4.90
2018-01-30T01:05:07.605Z,4.80
2018-01-30T01:07:35.082Z,4.80
2018-01-30T01:10:03.730Z,4.80
2018-01-30T01:12:31.209Z,4.80
2018-01-30T01:14:58.671Z,4.70
2018-01-30T01:17:26.162Z,4.70
2018-01-30T01:19:53.637Z,4.70
2018-01-30T01:22:21.910Z,4.70
2018-01-30T01:24:50.138Z,4.60
2018-01-30T01:27:17.626Z,4.60
2018-01-30T01:29:45.126Z,4.60
2018-01-30T01:32:12.618Z,4.60
2018-01-30T01:34:40.088Z,4.60
2018-01-30T01:37:07.574Z,4.60
2018-01-30T01:39:35.815Z,4.50
2018-01-30T01:42:03.327Z,4.50
2018-01-30T01:44:30.786Z,4.50
2018-01-30T01:46:58.257Z,4.50
2018-01-30T01:49:31.766Z,4.40
2018-01-30T01:51:59.221Z,4.40
2018-01-30T01:54:26.710Z,4.40
2018-01-30T01:56:54.959Z,4.30
2018-01-30T01:59:22.421Z,4.30
2018-01-30T02:01:49.893Z,4.30
2018-01-30T02:04:17.374Z,4.20
2018-01-30T02:06:44.839Z,4.20
2018-01-30T02:09:12.331Z,4.20
2018-01-30T02:11:39.828Z,4.20
2018-01-30T02:14:08.068Z,4.20
2018-01-30T02:16:35.532Z,4.20
2018-01-30T02:19:03.023Z,4.20
2018-01-30T02:21:30.499Z,4.20
2018-01-30T02:23:58.114Z,4.20
2018-01-30T02:26:26.406Z,4.30
2018-01-30T02:28:54.658Z,4.40
2018-01-30T02:31:22.161Z,4.40
2018-01-30T02:33:49.622Z,4.50
2018-01-30T02:36:17.097Z,4.50
2018-01-30T02:38:44.582Z,4.50
2018-01-30T02:41:12.051Z,4.50
2018-01-30T02:43:40.314Z,4.50
2018-01-30T02:46:07.797Z,4.40
2018-01-30T02:48:35.267Z,4.40
2018-01-30T02:51:02.730Z,4.40
2018-01-30T02:53:30.219Z,4.40
2018-01-30T02:55:57.717Z,4.30
2018-01-30T02:58:25.227Z,4.30
2018-01-30T03:00:52.697Z,4.30
2018-01-30T03:03:20.950Z,4.20
2018-01-30T03:05:48.422Z,4.20
2018-01-30T03:08:15.906Z,4.10
2018-01-30T03:10:44.134Z,4.10
2018-01-30T03:13:11.618Z,4.10
2018-01-30T03:15:39.097Z,4.00
2018-01-30T03:18:07.362Z,3.90
2018-01-30T03:20:35.605Z,3.80
2018-01-30T03:23:03.099Z,3.80
2018-01-30T03:25:31.340Z,3.70
2018-01-30T03:27:58.827Z,3.70
2018-01-30T03:30:27.046Z,3.50
2018-01-30T03:32:54.527Z,3.50
2018-01-30T03:35:22.011Z,3.40
2018-01-30T03:37:50.241Z,3.30
2018-01-30T03:40:17.757Z,3.30
2018-01-30T03:42:45.240Z,3.30
2018-01-30T03:45:12.712Z,3.30
2018-01-30T03:47:40.185Z,3.30
2018-01-30T03:50:07.671Z,3.30
2018-01-30T03:52:35.897Z,3.20
2018-01-30T03:55:03.412Z,3.20
2018-01-30T03:57:30.888Z,3.10
2018-01-30T03:59:58.366Z,3.10
2018-01-30T04:02:25.840Z,3.00
2018-01-30T04:04:53.320Z,3.00
2018-01-30T04:07:20.835Z,2.90
2018-01-30T04:09:48.307Z,2.90
2018-01-30T04:12:15.803Z,2.80
2018-01-30T04:14:44.030Z,2.80
2018-01-30T04:17:11.498Z,2.70
2018-01-30T04:19:38.986Z,2.80
2018-01-30T04:22:06.485Z,2.80
2018-01-30T04:24:33.972Z,2.80
2018-01-30T04:27:01.461Z,2.70
2018-01-30T04:29:28.932Z,2.70
2018-01-30T04:31:56.450Z,2.70
2018-01-30T04:34:24.707Z,2.70
2018-01-30T04:36:52.209Z,2.70
2018-01-30T04:39:19.675Z,2.70
2018-01-30T04:41:47.175Z,2.70
2018-01-30T04:44:14.665Z,2.70
2018-01-30T04:46:42.197Z,2.70
2018-01-30T04:49:09.687Z,2.70
2018-01-30T04:51:37.172Z,2.70
2018-01-30T04:54:04.662Z,2.80
2018-01-30T04:56:32.145Z,2.80
2018-01-30T04:59:00.385Z,2.90
2018-01-30T05:01:27.996Z,2.80
2018-01-30T05:03:55.481Z,2.90
2018-01-30T05:06:22.981Z,2.90
2018-01-30T05:08:51.216Z,2.80
2018-01-30T05:11:18.699Z,2.80
2018-01-30T05:13:46.188Z,2.80
2018-01-30T05:16:13.651Z,2.80
2018-01-30T05:18:41.143Z,2.80
2018-01-30T05:21:08.626Z,2.70
2018-01-30T05:23:36.857Z,2.70
2018-01-30T05:26:04.356Z,2.70
2018-01-30T05:28:31.854Z,2.70
2018-01-30T05:30:59.554Z,2.70
2018-01-30T05:33:27.077Z,2.70
2018-01-30T05:35:54.550Z,2.70
2018-01-30T05:38:22.029Z,2.70
2018-01-30T05:40:50.430Z,2.70
2018-01-30T05:43:18.720Z,2.80
2018-01-30T05:45:46.998Z,2.80
2018-01-30T05:48:14.460Z,2.80
2018-01-30T05:50:41.947Z,2.90
2018-01-30T05:53:09.438Z,2.80
2018-01-30T05:55:36.910Z,2.80
2018-01-30T05:58:05.189Z,2.90
2018-01-30T06:00:32.649Z,2.80
2018-01-30T06:03:00.140Z,2.80
2018-01-30T06:05:27.614Z,2.90
2018-01-30T06:07:55.113Z,2.90
2018-01-30T06:10:22.614Z,2.90
2018-01-30T06:12:50.087Z,2.80
2018-01-30T06:15:17.620Z,2.70
2018-01-30T06:17:45.154Z,2.70
2018-01-30T06:20:12.638Z,2.70
2018-01-30T06:22:40.390Z,2.60
2018-01-30T06:25:07.933Z,2.70
2018-01-30T06:27:35.400Z,2.60
2018-01-30T06:30:02.902Z,2.60
2018-01-30T06:32:30.416Z,2.60
2018-01-30T06:34:58.012Z,2.60
2018-01-30T06:37:26.642Z,2.60
2018-01-30T06:39:54.117Z,2.60
2018-01-30T06:42:21.612Z,2.70
2018-01-30T06:44:49.097Z,2.70
2018-01-30T06:47:16.587Z,2.70
2018-01-30T06:49:44.879Z,2.80
2018-01-30T06:52:12.394Z,2.80
2018-01-30T06:54:39.877Z,2.80
2018-01-30T06:57:07.379Z,2.90
2018-01-30T06:59:34.850Z,2.90
2018-01-30T07:02:02.334Z,2.90
2018-01-30T07:04:29.838Z,2.90
2018-01-30T07:06:57.356Z,2.90
2018-01-30T07:09:24.847Z,2.90
2018-01-30T07:11:52.341Z,2.90
2018-01-30T07:14:19.841Z,3.00
2018-01-30T07:16:47.315Z,3.00
2018-01-30T07:19:14.819Z,3.00
2018-01-30T07:21:42.299Z,3.00
2018-01-30T07:24:09.770Z,3.10
2018-01-30T07:26:37.312Z,3.10
2018-01-30T07:29:04.810Z,3.10
2018-01-30T07:31:32.473Z,3.20
2018-01-30T07:34:00.709Z,3.30
2018-01-30T07:36:28.199Z,3.30
2018-01-30T07:38:56.456Z,3.30
2018-01-30T07:41:23.944Z,3.30
2018-01-30T07:43:51.402Z,3.30
2018-01-30T07:46:18.914Z,3.30
2018-01-30T07:48:46.436Z,3.40
2018-01-30T07:51:13.990Z,3.40
2018-01-30T07:53:41.479Z,3.40
2018-01-30T07:56:08.982Z,3.40
2018-01-30T07:58:37.258Z,3.50
2018-01-30T08:01:05.506Z,3.50
2018-01-30T08:03:32.988Z,3.50
2018-01-30T08:06:01.241Z,3.70
2018-01-30T08:08:28.695Z,3.60
2018-01-30T08:10:56.184Z,3.70
2018-01-30T08:13:23.667Z,3.80
2018-01-30T08:15:51.141Z,3.90
2018-01-30T08:18:18.623Z,4.00
2018-01-30T08:20:46.117Z,4.10
2018-01-30T08:23:13.589Z,4.20
2018-01-30T08:25:41.058Z,4.30
2018-01-30T08:28:08.541Z,4.30
2018-01-30T08:30:37.032Z,4.40
2018-01-30T08:33:05.344Z,4.50
2018-01-30T08:35:32.856Z,4.50
2018-01-30T08:38:00.419Z,4.60
2018-01-30T08:40:27.897Z,4.60
2018-01-30T08:42:55.372Z,4.70
2018-01-30T08:45:22.851Z,4.80
2018-01-30T08:47:50.334Z,4.90
2018-01-30T08:50:17.816Z,5.00
2018-01-30T08:52:45.443Z,5.10
2018-01-30T08:55:12.892Z,5.30
2018-01-30T08:57:40.359Z,5.40
2018-01-30T09:00:07.850Z,5.60
2018-01-30T09:02:35.329Z,5.70
2018-01-30T09:05:02.825Z,5.90
2018-01-30T09:07:30.294Z,5.90
2018-01-30T09:09:57.777Z,6.00
2018-01-30T09:12:25.305Z,6.10
2018-01-30T09:14:52.972Z,6.20
2018-01-30T09:17:20.458Z,6.30
2018-01-30T09:19:47.922Z,6.30
2018-01-30T09:22:15.406Z,6.50
2018-01-30T09:24:42.878Z,6.70
2018-01-30T09:27:10.371Z,6.80
2018-01-30T09:29:37.838Z,7.10
2018-01-30T09:32:05.329Z,7.30
2018-01-30T09:34:32.791Z,7.40
2018-01-30T09:37:00.307Z,7.40
2018-01-30T09:39:27.794Z,7.50
2018-01-30T09:41:55.282Z,7.50
2018-01-30T09:44:22.751Z,7.40
2018-01-30T09:46:51.047Z,7.50
2018-01-30T09:49:18.572Z,7.50
2018-01-30T09:51:46.015Z,7.60
2018-01-30T09:54:13.499Z,7.70
2018-01-30T09:56:41.735Z,7.80
2018-01-30T09:59:09.213Z,7.80
2018-01-30T10:01:37.494Z,7.90
2018-01-30T10:04:05.752Z,7.90
2018-01-30T10:06:34.814Z,8.00
2018-01-30T10:09:02.318Z,7.90
2018-01-30T10:11:29.805Z,8.00
2018-01-30T10:13:57.455Z,8.10
2018-01-30T10:16:24.898Z,8.10
2018-01-30T10:18:53.145Z,8.30
2018-01-30T10:21:20.629Z,8.30
2018-01-30T10:23:48.906Z,8.80
2018-01-30T10:26:17.173Z,9.10
2018-01-30T10:28:45.410Z,9.60
2018-01-30T10:31:13.344Z,9.60
2018-01-30T10:33:41.108Z,10.00
2018-01-30T10:36:08.939Z,10.20
2018-01-30T10:38:37.723Z,10.30
2018-01-30T10:41:05.325Z,10.30
2018-01-30T10:43:32.921Z,10.50
2018-01-30T10:46:00.411Z,10.60
2018-01-30T10:48:28.671Z,10.90
2018-01-30T10:50:56.166Z,10.90
2018-01-30T10:53:23.865Z,11.00
2018-01-30T10:55:51.433Z,11.20
2018-01-30T10:58:18.951Z,11.40
2018-01-30T11:00:46.607Z,11.30
2018-01-30T11:03:14.238Z,11.40
2018-01-30T11:05:42.483Z,11.30
2018-01-30T11:08:10.729Z,11.10
2018-01-30T11:10:38.354Z,11.10
2018-01-30T11:13:05.846Z,11.20
2018-01-30T11:15:33.438Z,11.20
2018-01-30T11:18:00.934Z,10.90
2018-01-30T11:20:28.401Z,10.80
2018-01-30T11:22:55.879Z,10.90
2018-01-30T11:25:23.390Z,11.00
2018-01-30T11:27:50.884Z,11.10
2018-01-30T11:30:18.395Z,11.10
2018-01-30T11:32:46.743Z,10.90
2018-01-30T11:35:14.269Z,10.90
2018-01-30T11:37:41.774Z,10.90
2018-01-30T11:40:10.095Z,11.00
2018-01-30T11:42:37.598Z,11.00
2018-01-30T11:45:05.084Z,11.10
2018-01-30T11:47:32.562Z,10.90
2018-01-30T11:50:00.198Z,10.90
2018-01-30T11:52:27.675Z,11.00
2018-01-30T11:54:55.146Z,11.10
2018-01-30T11:57:22.616Z,11.10
2018-01-30T11:59:50.115Z,11.10
2018-01-30T12:02:17.648Z,11.10
2018-01-30T12:04:45.124Z,11.00
2018-01-30T12:07:13.380Z,10.70
2018-01-30T12:09:41.615Z,10.60
2018-01-30T12:12:09.110Z,10.60
2018-01-30T12:14:36.590Z,10.60
2018-01-30T12:17:04.067Z,10.60
2018-01-30T12:19:31.526Z,10.60
2018-01-30T12:21:59.001Z,10.60
2018-01-30T12:24:26.466Z,10.50
2018-01-30T12:26:53.943Z,10.60
2018-01-30T12:29:22.230Z,10.80
2018-01-30T12:31:50.525Z,10.70
2018-01-30T12:34:18.766Z,10.70
2018-01-30T12:36:47.036Z,10.90
2018-01-30T12:39:14.516Z,10.90
2018-01-30T12:41:42.759Z,11.30
2018-01-30T12:44:10.259Z,11.30
2018-01-30T12:46:37.788Z,11.50
2018-01-30T12:49:05.441Z,11.60
2018-01-30T12:51:32.912Z,11.40
2018-01-30T12:54:01.149Z,11.50
2018-01-30T12:56:28.650Z,11.50
2018-01-30T12:58:56.297Z,11.40
2018-01-30T13:01:23.771Z,11.50
2018-01-30T13:03:51.230Z,11.50
2018-01-30T13:06:18.765Z,11.40
2018-01-30T13:08:46.308Z,11.40
2018-01-30T13:11:13.855Z,11.30
2018-01-30T13:13:41.338Z,11.30
2018-01-30T13:16:09.583Z,11.20
2018-01-30T13:18:37.075Z,11.20
2018-01-30T13:21:05.323Z,11.20
2018-01-30T13:23:32.807Z,11.20
2018-01-30T13:26:01.051Z,10.90
2018-01-30T13:28:28.632Z,10.80
2018-01-30T13:30:56.878Z,10.90
2018-01-30T13:33:24.370Z,10.90
2018-01-30T13:35:52.629Z,10.80
2018-01-30T13:38:20.125Z,10.80
2018-01-30T13:40:47.587Z,10.80
2018-01-30T13:43:15.074Z,10.90
2018-01-30T13:45:42.596Z,10.80
2018-01-30T13:48:13.117Z,10.80
2018-01-30T13:50:40.595Z,10.70
2018-01-30T13:53:08.119Z,10.60
2018-01-30T13:55:36.363Z,10.70
2018-01-30T13:58:03.932Z,10.70
2018-01-30T14:00:32.189Z,10.50
2018-01-30T14:02:59.688Z,10.50
2018-01-30T14:05:27.143Z,10.50
2018-01-30T14:07:54.650Z,10.50
2018-01-30T14:10:22.135Z,10.50
2018-01-30T14:12:49.606Z,10.40
2018-01-30T14:15:17.094Z,10.30
2018-01-30T14:17:44.574Z,10.20
2018-01-30T14:20:12.077Z,10.20
2018-01-30T14:22:40.324Z,10.20
2018-01-30T14:25:07.845Z,10.20
2018-01-30T14:27:35.314Z,10.20
2018-01-30T14:30:02.828Z,10.20
2018-01-30T14:32:30.287Z,10.20
2018-01-30T14:34:57.903Z,10.20
2018-01-30T14:37:25.388Z,10.20
2018-01-30T14:39:54.954Z,10.20
2018-01-30T14:42:22.454Z,10.20
2018-01-30T14:44:49.945Z,10.20
2018-01-30T14:47:17.471Z,10.10
2018-01-30T14:49:44.941Z,10.00
2018-01-30T14:52:12.399Z,9.90
2018-01-30T14:54:39.867Z,9.80
2018-01-30T14:57:07.348Z,9.60
2018-01-30T14:59:34.832Z,9.50
2018-01-30T15:02:03.094Z,9.30
2018-01-30T15:04:30.556Z,9.30
2018-01-30T15:06:58.835Z,9.20
2018-01-30T15:09:26.286Z,9.20
2018-01-30T15:11:54.531Z,9.00
2018-01-30T15:14:22.038Z,9.00
2018-01-30T15:16:49.520Z,9.00
2018-01-30T15:19:16.974Z,9.00
2018-01-30T15:21:44.446Z,9.10
2018-01-30T15:24:11.930Z,9.10
2018-01-30T15:26:39.430Z,9.10
2018-01-30T15:29:06.951Z,9.10
2018-01-30T15:31:35.211Z,8.90
2018-01-30T15:34:02.690Z,8.90
2018-01-30T15:36:30.909Z,8.80
2018-01-30T15:38:58.406Z,8.70
2018-01-30T15:41:25.916Z,8.70
2018-01-30T15:43:53.424Z,8.60
2018-01-30T15:46:21.022Z,8.50
2018-01-30T15:48:48.508Z,8.40
2018-01-30T15:51:15.997Z,8.40
2018-01-30T15:53:44.263Z,8.20
2018-01-30T15:56:11.745Z,8.10
2018-01-30T15:58:39.219Z,8.10
2018-01-30T16:01:06.708Z,7.90
2018-01-30T16:03:34.182Z,7.90
2018-01-30T16:06:01.701Z,7.70
2018-01-30T16:08:29.247Z,7.60
2018-01-30T16:10:57.408Z,7.50
2018-01-30T16:13:24.919Z,7.40
2018-01-30T16:15:52.380Z,7.30
2018-01-30T16:18:19.890Z,7.20
2018-01-30T16:20:47.930Z,7.10
2018-01-30T16:23:16.193Z,6.90
2018-01-30T16:25:43.683Z,6.90
2018-01-30T16:28:11.251Z,6.90
2018-01-30T16:30:38.703Z,6.80
2018-01-30T16:33:08.143Z,6.70
2018-01-30T16:35:35.940Z,6.70
2018-01-30T16:38:04.246Z,6.50
2018-01-30T16:40:31.801Z,6.50
2018-01-30T16:42:59.267Z,6.50
2018-01-30T16:45:26.728Z,6.40
2018-01-30T16:47:54.242Z,6.40
2018-01-30T16:50:23.648Z,6.30
2018-01-30T16:52:51.884Z,6.30
2018-01-30T16:55:19.416Z,6.20
2018-01-30T16:57:46.891Z,6.20
2018-01-30T17:00:14.414Z,6.20
2018-01-30T17:02:41.876Z,6.20
2018-01-30T17:05:09.541Z,6.20
2018-01-30T17:07:37.194Z,6.10
2018-01-30T17:10:04.684Z,6.10
2018-01-30T17:12:32.141Z,6.10
2018-01-30T17:14:59.611Z,6.00
2018-01-30T17:17:27.173Z,6.00
2018-01-30T17:19:54.652Z,5.90
2018-01-30T17:22:22.155Z,5.90
2018-01-30T17:24:49.658Z,5.80
2018-01-30T17:27:17.913Z,5.70
2018-01-30T17:29:45.370Z,5.70
2018-01-30T17:32:12.868Z,5.70
2018-01-30T17:34:40.367Z,5.60
2018-01-30T17:37:07.884Z,5.60
2018-01-30T17:39:35.346Z,5.50
2018-01-30T17:42:02.855Z,5.50
2018-01-30T17:44:30.316Z,5.50
2018-01-30T17:46:58.553Z,5.40
2018-01-30T17:49:26.053Z,5.40
2018-01-30T17:51:54.650Z,5.40
2018-01-30T17:54:22.857Z,5.30
2018-01-30T17:56:50.370Z,5.30
2018-01-30T17:59:18.593Z,5.20
2018-01-30T18:01:46.218Z,5.20
2018-01-30T18:04:13.687Z,5.20
2018-01-30T18:06:41.157Z,5.20
2018-01-30T18:09:08.697Z,5.10
2018-01-30T18:11:36.180Z,5.00
2018-01-30T18:14:03.658Z,5.00
2018-01-30T18:16:31.177Z,4.90
2018-01-30T18:18:58.663Z,5.00
2018-01-30T18:21:26.162Z,5.00
2018-01-30T18:23:53.674Z,4.90
2018-01-30T18:26:21.176Z,4.90
2018-01-30T18:28:48.663Z,5.00
2018-01-30T18:31:16.164Z,5.00
2018-01-30T18:33:43.651Z,5.10
2018-01-30T18:36:11.125Z,5.10
2018-01-30T18:38:38.593Z,5.20
2018-01-30T18:41:06.093Z,5.20
2018-01-30T18:43:35.758Z,5.30
2018-01-30T18:46:03.248Z,5.30
2018-01-30T18:48:30.718Z,5.30
2018-01-30T18:50:58.983Z,5.40
2018-01-30T18:53:27.246Z,5.40
2018-01-30T18:55:54.748Z,5.40
2018-01-30T18:58:22.236Z,5.40
2018-01-30T19:00:49.871Z,5.30
2018-01-30T19:03:17.462Z,5.20
2018-01-30T19:05:44.938Z,5.10
2018-01-30T19:08:12.479Z,5.10
2018-01-30T19:10:39.971Z,5.10
2018-01-30T19:13:08.205Z,5.10
2018-01-30T19:15:35.696Z,5.00
2018-01-30T19:18:03.971Z,5.20
2018-01-30T19:20:32.240Z,5.20
2018-01-30T19:23:00.494Z,5.30
2018-01-30T19:25:27.975Z,5.30
2018-01-30T19:27:56.232Z,5.40
2018-01-30T19:30:23.720Z,5.40
2018-01-30T19:32:51.217Z,5.40
2018-01-30T19:35:18.684Z,5.40
2018-01-30T19:37:46.407Z,5.40
2018-01-30T19:40:13.956Z,5.50
2018-01-30T19:42:41.455Z,5.50
2018-01-30T19:45:08.926Z,5.60
2018-01-30T19:47:36.383Z,5.60
2018-01-30T19:50:03.870Z,5.60
2018-01-30T19:52:31.367Z,5.70
2018-01-30T19:54:58.853Z,5.70
2018-01-30T19:57:26.339Z,5.70
2018-01-30T19:59:54.601Z,5.70
2018-01-30T20:02:22.847Z,5.70
2018-01-30T20:04:50.356Z,5.60
2018-01-30T20:07:17.822Z,5.60
2018-01-30T20:09:45.291Z,5.50
2018-01-30T20:12:12.763Z,5.50
2018-01-30T20:14:40.249Z,5.50
2018-01-30T20:17:08.492Z,5.40
2018-01-30T20:19:35.966Z,5.40
2018-01-30T20:22:03.441Z,5.40
2018-01-30T20:24:30.924Z,5.40
2018-01-30T20:26:58.426Z,5.40
2018-01-30T20:29:25.949Z,5.40
2018-01-30T20:31:53.441Z,5.30
2018-01-30T20:34:20.911Z,5.30
2018-01-30T20:36:49.179Z,5.30
2018-01-30T20:39:16.664Z,5.30
2018-01-30T20:41:44.891Z,5.20
2018-01-30T20:44:12.377Z,5.20
2018-01-30T20:46:40.625Z,5.20
2018-01-30T20:49:08.089Z,5.20
2018-01-30T20:51:35.576Z,5.20
2018-01-30T20:54:03.819Z,5.20
2018-01-30T20:56:31.323Z,5.20
2018-01-30T20:58:58.815Z,5.20
2018-01-30T21:01:26.344Z,5.10
2018-01-30T21:03:54.090Z,5.20
2018-01-30T21:06:21.552Z,5.20
2018-01-30T21:08:49.046Z,5.20
2018-01-30T21:11:16.493Z,5.20
2018-01-30T21:13:47.876Z,5.20
2018-01-30T21:16:15.351Z,5.20
2018-01-30T21:18:43.001Z,5.20
2018-01-30T21:21:11.236Z,5.20
2018-01-30T21:23:38.741Z,5.10
2018-01-30T21:26:07.067Z,5.30
2018-01-30T21:28:34.535Z,5.30
2018-01-30T21:31:02.017Z,5.40
2018-01-30T21:33:29.576Z,5.50
2018-01-30T21:35:57.817Z,5.70
2018-01-30T21:38:26.167Z,5.70
2018-01-30T21:40:53.688Z,5.80
2018-01-30T21:43:21.919Z,5.90
2018-01-30T21:45:49.411Z,5.90
2018-01-30T21:48:17.683Z,6.00
2018-01-30T21:50:45.955Z,6.00
2018-01-30T21:53:14.196Z,6.00
2018-01-30T21:55:41.658Z,6.00
2018-01-30T21:58:09.180Z,6.10
2018-01-30T22:00:36.635Z,6.10
2018-01-30T22:03:04.110Z,6.10
2018-01-30T22:05:31.604Z,6.20
2018-01-30T22:07:59.079Z,6.10
2018-01-30T22:10:26.542Z,6.20
2018-01-30T22:12:54.047Z,6.20
2018-01-30T22:15:24.595Z,6.20
2018-01-30T22:17:52.069Z,6.20
2018-01-30T22:20:20.330Z,6.20
2018-01-30T22:22:47.922Z,6.20
2018-01-30T22:25:15.421Z,6.30
2018-01-30T22:27:42.878Z,6.20
2018-01-30T22:30:10.373Z,6.30
2018-01-30T22:32:38.604Z,6.40
2018-01-30T22:35:06.076Z,6.40
2018-01-30T22:37:33.566Z,6.50
2018-01-30T22:40:01.814Z,6.50
2018-01-30T22:42:30.053Z,6.50
2018-01-30T22:44:57.519Z,6.50
